sensor_id;sensor_type;location;lat;lon;timestamp;temperature;humidity
3564;DHT22;1796;52.388;13.096;2023-05-07T00:00:34;8.20;99.90
3564;DHT22;1796;52.388;13.096;2023-05-07T00:03:01;8.20;99.90
3564;DHT22;1796;52.388;13.096;2023-05-07T00:05:28;8.30;99.90
3564;DHT22;1796;52.388;13.096;2023-05-07T00:07:56;8.30;99.90
3564;DHT22;1796;52.388;13.096;2023-05-07T00:10:23;8.30;99.90
3564;DHT22;1796;52.388;13.096;2023-05-07T00:12:50;8.30;99.90
3564;DHT22;1796;52.388;13.096;2023-05-07T00:15:17;8.30;99.90
3564;DHT22;1796;52.388;13.096;2023-05-07T00:17:44;8.40;99.90
3564;DHT22;1796;52.388;13.096;2023-05-07T00:20:12;8.40;99.90
3564;DHT22;1796;52.388;13.096;2023-05-07T00:22:38;8.40;99.90
3564;DHT22;1796;52.388;13.096;2023-05-07T00:25:07;8.40;99.90
3564;DHT22;1796;52.388;13.096;2023-05-07T00:27:35;8.30;99.90
3564;DHT22;1796;52.388;13.096;2023-05-07T00:30:03;8.40;99.90
3564;DHT22;1796;52.388;13.096;2023-05-07T00:32:29;8.40;99.90
3564;DHT22;1796;52.388;13.096;2023-05-07T00:34:56;8.40;99.90
3564;DHT22;1796;52.388;13.096;2023-05-07T00:37:23;8.40;99.90
3564;DHT22;1796;52.388;13.096;2023-05-07T00:39:50;8.40;99.90
3564;DHT22;1796;52.388;13.096;2023-05-07T00:42:19;8.40;99.90
3564;DHT22;1796;52.388;13.096;2023-05-07T00:44:46;8.40;99.90
3564;DHT22;1796;52.388;13.096;2023-05-07T00:47:13;8.40;99.90
3564;DHT22;1796;52.388;13.096;2023-05-07T00:49:42;8.40;99.90
3564;DHT22;1796;52.388;13.096;2023-05-07T00:52:11;8.40;99.90
3564;DHT22;1796;52.388;13.096;2023-05-07T00:54:38;8.40;99.90
3564;DHT22;1796;52.388;13.096;2023-05-07T00:57:06;8.40;99.90
3564;DHT22;1796;52.388;13.096;2023-05-07T00:59:35;8.40;99.90
3564;DHT22;1796;52.388;13.096;2023-05-07T01:02:02;8.40;99.90
3564;DHT22;1796;52.388;13.096;2023-05-07T01:04:29;8.40;99.90
3564;DHT22;1796;52.388;13.096;2023-05-07T01:06:57;8.40;99.90
3564;DHT22;1796;52.388;13.096;2023-05-07T01:09:25;8.40;99.90
3564;DHT22;1796;52.388;13.096;2023-05-07T01:11:53;8.50;99.90
3564;DHT22;1796;52.388;13.096;2023-05-07T01:14:20;8.50;99.90
3564;DHT22;1796;52.388;13.096;2023-05-07T01:16:49;8.50;99.90
3564;DHT22;1796;52.388;13.096;2023-05-07T01:19:18;8.50;99.90
3564;DHT22;1796;52.388;13.096;2023-05-07T01:21:47;8.50;99.90
3564;DHT22;1796;52.388;13.096;2023-05-07T01:24:16;8.50;99.90
3564;DHT22;1796;52.388;13.096;2023-05-07T01:26:44;8.50;99.90
3564;DHT22;1796;52.388;13.096;2023-05-07T01:29:11;8.50;99.90
3564;DHT22;1796;52.388;13.096;2023-05-07T01:31:38;8.50;99.90
3564;DHT22;1796;52.388;13.096;2023-05-07T01:34:08;8.50;99.90
3564;DHT22;1796;52.388;13.096;2023-05-07T01:36:36;8.50;99.90
3564;DHT22;1796;52.388;13.096;2023-05-07T01:39:04;8.50;99.90
3564;DHT22;1796;52.388;13.096;2023-05-07T01:41:33;8.50;99.90
3564;DHT22;1796;52.388;13.096;2023-05-07T01:44:00;8.50;99.90
3564;DHT22;1796;52.388;13.096;2023-05-07T01:46:28;8.50;99.90
3564;DHT22;1796;52.388;13.096;2023-05-07T01:48:55;8.50;99.90
3564;DHT22;1796;52.388;13.096;2023-05-07T01:51:22;8.50;99.90
3564;DHT22;1796;52.388;13.096;2023-05-07T01:53:49;8.40;99.90
3564;DHT22;1796;52.388;13.096;2023-05-07T01:56:17;8.50;99.90
3564;DHT22;1796;52.388;13.096;2023-05-07T01:58:45;8.40;99.90
3564;DHT22;1796;52.388;13.096;2023-05-07T02:01:13;8.40;99.90
3564;DHT22;1796;52.388;13.096;2023-05-07T02:03:40;8.40;99.90
3564;DHT22;1796;52.388;13.096;2023-05-07T02:06:07;8.40;99.90
3564;DHT22;1796;52.388;13.096;2023-05-07T02:08:34;8.40;99.90
3564;DHT22;1796;52.388;13.096;2023-05-07T02:11:01;8.40;99.90
3564;DHT22;1796;52.388;13.096;2023-05-07T02:13:29;8.40;99.90
3564;DHT22;1796;52.388;13.096;2023-05-07T02:15:58;8.40;99.90
3564;DHT22;1796;52.388;13.096;2023-05-07T02:18:25;8.40;99.90
3564;DHT22;1796;52.388;13.096;2023-05-07T02:20:52;8.40;99.90
3564;DHT22;1796;52.388;13.096;2023-05-07T02:23:19;8.40;99.90
3564;DHT22;1796;52.388;13.096;2023-05-07T02:25:45;8.40;99.90
3564;DHT22;1796;52.388;13.096;2023-05-07T02:28:12;8.40;99.90
3564;DHT22;1796;52.388;13.096;2023-05-07T02:30:39;8.40;99.90
3564;DHT22;1796;52.388;13.096;2023-05-07T02:33:08;8.40;99.90
3564;DHT22;1796;52.388;13.096;2023-05-07T02:35:35;8.40;99.90
3564;DHT22;1796;52.388;13.096;2023-05-07T02:38:02;8.40;99.90
3564;DHT22;1796;52.388;13.096;2023-05-07T02:40:28;8.40;99.90
3564;DHT22;1796;52.388;13.096;2023-05-07T02:42:59;8.40;99.90
3564;DHT22;1796;52.388;13.096;2023-05-07T02:45:25;8.40;99.90
3564;DHT22;1796;52.388;13.096;2023-05-07T02:47:52;8.40;99.90
3564;DHT22;1796;52.388;13.096;2023-05-07T02:50:21;8.40;99.90
3564;DHT22;1796;52.388;13.096;2023-05-07T02:52:47;8.40;99.90
3564;DHT22;1796;52.388;13.096;2023-05-07T02:55:14;8.40;99.90
3564;DHT22;1796;52.388;13.096;2023-05-07T02:57:41;8.40;99.90
3564;DHT22;1796;52.388;13.096;2023-05-07T03:00:13;8.40;99.90
3564;DHT22;1796;52.388;13.096;2023-05-07T03:02:40;8.40;99.90
3564;DHT22;1796;52.388;13.096;2023-05-07T03:05:07;8.40;99.90
3564;DHT22;1796;52.388;13.096;2023-05-07T03:07:36;8.40;99.90
3564;DHT22;1796;52.388;13.096;2023-05-07T03:10:03;8.40;99.90
3564;DHT22;1796;52.388;13.096;2023-05-07T03:12:31;8.40;99.90
3564;DHT22;1796;52.388;13.096;2023-05-07T03:14:57;8.40;99.90
3564;DHT22;1796;52.388;13.096;2023-05-07T03:17:24;8.40;99.90
3564;DHT22;1796;52.388;13.096;2023-05-07T03:19:51;8.40;99.90
3564;DHT22;1796;52.388;13.096;2023-05-07T03:22:18;8.40;99.90
3564;DHT22;1796;52.388;13.096;2023-05-07T03:24:46;8.40;99.90
3564;DHT22;1796;52.388;13.096;2023-05-07T03:27:13;8.40;99.90
3564;DHT22;1796;52.388;13.096;2023-05-07T03:29:40;8.40;99.90
3564;DHT22;1796;52.388;13.096;2023-05-07T03:32:06;8.40;99.90
3564;DHT22;1796;52.388;13.096;2023-05-07T03:34:33;8.40;99.90
3564;DHT22;1796;52.388;13.096;2023-05-07T03:37:00;8.40;99.90
3564;DHT22;1796;52.388;13.096;2023-05-07T03:39:27;8.40;99.90
3564;DHT22;1796;52.388;13.096;2023-05-07T03:41:55;8.40;99.90
3564;DHT22;1796;52.388;13.096;2023-05-07T03:44:22;8.40;99.90
3564;DHT22;1796;52.388;13.096;2023-05-07T03:46:49;8.40;99.90
3564;DHT22;1796;52.388;13.096;2023-05-07T03:49:16;8.50;99.90
3564;DHT22;1796;52.388;13.096;2023-05-07T03:51:42;8.50;99.90
3564;DHT22;1796;52.388;13.096;2023-05-07T03:54:09;8.40;99.90
3564;DHT22;1796;52.388;13.096;2023-05-07T03:56:36;8.40;99.90
3564;DHT22;1796;52.388;13.096;2023-05-07T03:59:04;8.40;99.90
3564;DHT22;1796;52.388;13.096;2023-05-07T04:01:31;8.40;99.90
3564;DHT22;1796;52.388;13.096;2023-05-07T04:03:58;8.40;99.90
3564;DHT22;1796;52.388;13.096;2023-05-07T04:06:25;8.50;99.90
3564;DHT22;1796;52.388;13.096;2023-05-07T04:08:53;8.40;99.90
3564;DHT22;1796;52.388;13.096;2023-05-07T04:11:19;8.50;99.90
3564;DHT22;1796;52.388;13.096;2023-05-07T04:13:46;8.50;99.90
3564;DHT22;1796;52.388;13.096;2023-05-07T04:16:15;8.50;99.90
3564;DHT22;1796;52.388;13.096;2023-05-07T04:18:42;8.40;99.90
3564;DHT22;1796;52.388;13.096;2023-05-07T04:21:14;8.40;99.90
3564;DHT22;1796;52.388;13.096;2023-05-07T04:23:41;8.50;99.90
3564;DHT22;1796;52.388;13.096;2023-05-07T04:26:08;8.50;99.90
3564;DHT22;1796;52.388;13.096;2023-05-07T04:28:35;8.50;99.90
3564;DHT22;1796;52.388;13.096;2023-05-07T04:31:02;8.50;99.90
3564;DHT22;1796;52.388;13.096;2023-05-07T04:33:31;8.50;99.90
3564;DHT22;1796;52.388;13.096;2023-05-07T04:35:58;8.50;99.90
3564;DHT22;1796;52.388;13.096;2023-05-07T04:38:28;8.60;99.90
3564;DHT22;1796;52.388;13.096;2023-05-07T04:40:55;8.50;99.90
3564;DHT22;1796;52.388;13.096;2023-05-07T04:43:22;8.50;99.90
3564;DHT22;1796;52.388;13.096;2023-05-07T04:45:50;8.50;99.90
3564;DHT22;1796;52.388;13.096;2023-05-07T04:48:17;8.50;99.90
3564;DHT22;1796;52.388;13.096;2023-05-07T04:50:47;8.50;99.90
3564;DHT22;1796;52.388;13.096;2023-05-07T04:53:14;8.50;99.90
3564;DHT22;1796;52.388;13.096;2023-05-07T04:55:41;8.60;99.90
3564;DHT22;1796;52.388;13.096;2023-05-07T04:58:08;8.50;99.90
3564;DHT22;1796;52.388;13.096;2023-05-07T05:00:36;8.50;99.90
3564;DHT22;1796;52.388;13.096;2023-05-07T05:03:04;8.50;99.90
3564;DHT22;1796;52.388;13.096;2023-05-07T05:05:31;8.50;99.90
3564;DHT22;1796;52.388;13.096;2023-05-07T05:07:59;8.60;99.90
3564;DHT22;1796;52.388;13.096;2023-05-07T05:10:26;8.70;99.90
3564;DHT22;1796;52.388;13.096;2023-05-07T05:12:53;8.70;99.90
3564;DHT22;1796;52.388;13.096;2023-05-07T05:15:20;8.70;99.90
3564;DHT22;1796;52.388;13.096;2023-05-07T05:17:47;8.70;99.90
3564;DHT22;1796;52.388;13.096;2023-05-07T05:20:14;8.60;99.90
3564;DHT22;1796;52.388;13.096;2023-05-07T05:22:41;8.70;99.90
3564;DHT22;1796;52.388;13.096;2023-05-07T05:25:09;8.70;99.90
3564;DHT22;1796;52.388;13.096;2023-05-07T05:27:36;8.70;99.90
3564;DHT22;1796;52.388;13.096;2023-05-07T05:30:04;8.70;99.90
3564;DHT22;1796;52.388;13.096;2023-05-07T05:32:31;8.80;99.90
3564;DHT22;1796;52.388;13.096;2023-05-07T05:34:58;8.80;99.90
3564;DHT22;1796;52.388;13.096;2023-05-07T05:37:25;8.80;99.90
3564;DHT22;1796;52.388;13.096;2023-05-07T05:39:52;8.70;99.90
3564;DHT22;1796;52.388;13.096;2023-05-07T05:42:21;8.80;99.90
3564;DHT22;1796;52.388;13.096;2023-05-07T05:44:48;8.90;99.90
3564;DHT22;1796;52.388;13.096;2023-05-07T05:47:15;8.90;99.90
3564;DHT22;1796;52.388;13.096;2023-05-07T05:49:42;8.90;99.90
3564;DHT22;1796;52.388;13.096;2023-05-07T05:52:12;8.80;99.90
3564;DHT22;1796;52.388;13.096;2023-05-07T05:54:39;8.90;99.90
3564;DHT22;1796;52.388;13.096;2023-05-07T05:57:06;9.00;99.90
3564;DHT22;1796;52.388;13.096;2023-05-07T05:59:34;9.00;99.90
3564;DHT22;1796;52.388;13.096;2023-05-07T06:02:01;9.00;99.90
3564;DHT22;1796;52.388;13.096;2023-05-07T06:04:28;9.00;99.90
3564;DHT22;1796;52.388;13.096;2023-05-07T06:06:55;9.00;99.90
3564;DHT22;1796;52.388;13.096;2023-05-07T06:09:22;9.00;99.90
3564;DHT22;1796;52.388;13.096;2023-05-07T06:11:49;9.10;99.90
3564;DHT22;1796;52.388;13.096;2023-05-07T06:14:16;9.20;99.90
3564;DHT22;1796;52.388;13.096;2023-05-07T06:16:44;9.30;99.90
3564;DHT22;1796;52.388;13.096;2023-05-07T06:19:11;9.50;99.90
3564;DHT22;1796;52.388;13.096;2023-05-07T06:21:38;9.80;99.90
3564;DHT22;1796;52.388;13.096;2023-05-07T06:24:06;9.80;99.90
3564;DHT22;1796;52.388;13.096;2023-05-07T06:26:33;10.00;99.90
3564;DHT22;1796;52.388;13.096;2023-05-07T06:28:59;10.10;99.90
3564;DHT22;1796;52.388;13.096;2023-05-07T06:31:30;10.00;99.90
3564;DHT22;1796;52.388;13.096;2023-05-07T06:33:58;10.20;99.90
3564;DHT22;1796;52.388;13.096;2023-05-07T06:36:25;10.60;99.90
3564;DHT22;1796;52.388;13.096;2023-05-07T06:38:52;11.10;99.90
3564;DHT22;1796;52.388;13.096;2023-05-07T07:02:36;10.80;99.90
3564;DHT22;1796;52.388;13.096;2023-05-07T07:05:04;10.80;99.90
3564;DHT22;1796;52.388;13.096;2023-05-07T07:07:31;10.80;99.90
3564;DHT22;1796;52.388;13.096;2023-05-07T07:09:58;10.50;99.90
3564;DHT22;1796;52.388;13.096;2023-05-07T07:12:25;10.60;99.90
3564;DHT22;1796;52.388;13.096;2023-05-07T07:14:52;10.40;99.90
3564;DHT22;1796;52.388;13.096;2023-05-07T07:17:18;10.60;99.90
3564;DHT22;1796;52.388;13.096;2023-05-07T07:19:47;10.80;99.90
3564;DHT22;1796;52.388;13.096;2023-05-07T07:22:13;11.10;99.90
3564;DHT22;1796;52.388;13.096;2023-05-07T07:24:40;11.10;99.90
3564;DHT22;1796;52.388;13.096;2023-05-07T07:27:07;10.90;99.90
3564;DHT22;1796;52.388;13.096;2023-05-07T07:29:34;11.00;99.90
3564;DHT22;1796;52.388;13.096;2023-05-07T07:32:01;11.20;99.90
3564;DHT22;1796;52.388;13.096;2023-05-07T07:34:28;11.50;99.90
3564;DHT22;1796;52.388;13.096;2023-05-07T07:36:57;11.40;99.90
3564;DHT22;1796;52.388;13.096;2023-05-07T07:39:23;11.00;99.90
3564;DHT22;1796;52.388;13.096;2023-05-07T07:41:50;11.00;99.90
3564;DHT22;1796;52.388;13.096;2023-05-07T07:44:17;11.50;99.90
3564;DHT22;1796;52.388;13.096;2023-05-07T07:46:44;11.60;99.90
3564;DHT22;1796;52.388;13.096;2023-05-07T07:49:11;11.60;99.90
3564;DHT22;1796;52.388;13.096;2023-05-07T07:51:38;11.60;99.90
3564;DHT22;1796;52.388;13.096;2023-05-07T07:54:06;11.80;99.90
3564;DHT22;1796;52.388;13.096;2023-05-07T07:56:33;11.90;99.90
3564;DHT22;1796;52.388;13.096;2023-05-07T07:59:00;11.90;99.90
3564;DHT22;1796;52.388;13.096;2023-05-07T08:01:30;11.80;99.90
3564;DHT22;1796;52.388;13.096;2023-05-07T08:03:57;11.80;99.90
3564;DHT22;1796;52.388;13.096;2023-05-07T08:06:24;11.80;99.90
3564;DHT22;1796;52.388;13.096;2023-05-07T08:08:52;11.90;99.90
3564;DHT22;1796;52.388;13.096;2023-05-07T08:11:20;11.80;99.90
3564;DHT22;1796;52.388;13.096;2023-05-07T08:13:47;11.70;99.90
3564;DHT22;1796;52.388;13.096;2023-05-07T08:16:14;11.80;99.90
3564;DHT22;1796;52.388;13.096;2023-05-07T08:18:41;12.00;99.90
3564;DHT22;1796;52.388;13.096;2023-05-07T08:21:08;12.20;99.90
3564;DHT22;1796;52.388;13.096;2023-05-07T08:23:35;12.80;99.90
3564;DHT22;1796;52.388;13.096;2023-05-07T08:26:02;12.60;99.90
3564;DHT22;1796;52.388;13.096;2023-05-07T08:28:30;12.50;99.90
3564;DHT22;1796;52.388;13.096;2023-05-07T08:30:57;12.90;99.90
3564;DHT22;1796;52.388;13.096;2023-05-07T08:33:26;12.40;99.90
3564;DHT22;1796;52.388;13.096;2023-05-07T08:35:53;12.50;99.90
3564;DHT22;1796;52.388;13.096;2023-05-07T08:38:20;12.30;99.90
3564;DHT22;1796;52.388;13.096;2023-05-07T08:40:46;12.30;99.90
3564;DHT22;1796;52.388;13.096;2023-05-07T08:43:14;12.50;99.90
3564;DHT22;1796;52.388;13.096;2023-05-07T08:45:43;12.80;99.90
3564;DHT22;1796;52.388;13.096;2023-05-07T08:48:15;13.10;99.90
3564;DHT22;1796;52.388;13.096;2023-05-07T08:50:42;13.30;99.90
3564;DHT22;1796;52.388;13.096;2023-05-07T08:53:10;13.30;99.90
3564;DHT22;1796;52.388;13.096;2023-05-07T08:55:36;13.20;99.90
3564;DHT22;1796;52.388;13.096;2023-05-07T08:58:03;13.30;99.90
3564;DHT22;1796;52.388;13.096;2023-05-07T09:00:30;13.20;99.90
3564;DHT22;1796;52.388;13.096;2023-05-07T09:03:00;13.00;99.90
3564;DHT22;1796;52.388;13.096;2023-05-07T09:05:27;13.20;99.90
3564;DHT22;1796;52.388;13.096;2023-05-07T09:07:54;13.40;99.90
3564;DHT22;1796;52.388;13.096;2023-05-07T09:10:21;13.80;99.90
3564;DHT22;1796;52.388;13.096;2023-05-07T09:12:48;13.70;99.90
3564;DHT22;1796;52.388;13.096;2023-05-07T09:15:15;13.80;99.90
3564;DHT22;1796;52.388;13.096;2023-05-07T09:17:43;13.90;99.90
3564;DHT22;1796;52.388;13.096;2023-05-07T09:20:12;13.50;99.90
3564;DHT22;1796;52.388;13.096;2023-05-07T09:22:39;14.00;99.90
3564;DHT22;1796;52.388;13.096;2023-05-07T09:25:06;14.50;99.90
3564;DHT22;1796;52.388;13.096;2023-05-07T09:27:34;14.40;99.90
3564;DHT22;1796;52.388;13.096;2023-05-07T09:30:03;13.80;99.90
3564;DHT22;1796;52.388;13.096;2023-05-07T09:32:35;13.90;99.90
3564;DHT22;1796;52.388;13.096;2023-05-07T09:35:02;14.30;99.90
3564;DHT22;1796;52.388;13.096;2023-05-07T09:37:31;14.00;99.90
3564;DHT22;1796;52.388;13.096;2023-05-07T09:39:58;14.10;99.90
3564;DHT22;1796;52.388;13.096;2023-05-07T09:42:25;14.30;99.90
3564;DHT22;1796;52.388;13.096;2023-05-07T09:44:52;14.60;99.90
3564;DHT22;1796;52.388;13.096;2023-05-07T09:47:20;14.30;99.90
3564;DHT22;1796;52.388;13.096;2023-05-07T09:49:50;14.90;99.90
3564;DHT22;1796;52.388;13.096;2023-05-07T09:52:21;14.70;99.90
3564;DHT22;1796;52.388;13.096;2023-05-07T09:54:50;14.80;99.90
3564;DHT22;1796;52.388;13.096;2023-05-07T09:57:19;14.80;99.90
3564;DHT22;1796;52.388;13.096;2023-05-07T09:59:47;15.40;99.90
3564;DHT22;1796;52.388;13.096;2023-05-07T10:02:15;15.40;99.90
3564;DHT22;1796;52.388;13.096;2023-05-07T10:04:44;15.50;99.90
3564;DHT22;1796;52.388;13.096;2023-05-07T10:15:46;15.30;99.90
3564;DHT22;1796;52.388;13.096;2023-05-07T10:18:14;15.40;99.90
3564;DHT22;1796;52.388;13.096;2023-05-07T10:20:43;15.50;99.90
3564;DHT22;1796;52.388;13.096;2023-05-07T10:26:30;15.00;99.90
3564;DHT22;1796;52.388;13.096;2023-05-07T10:29:01;15.50;99.90
3564;DHT22;1796;52.388;13.096;2023-05-07T10:31:48;15.30;99.90
3564;DHT22;1796;52.388;13.096;2023-05-07T10:34:21;15.10;99.90
3564;DHT22;1796;52.388;13.096;2023-05-07T10:36:48;15.00;99.90
3564;DHT22;1796;52.388;13.096;2023-05-07T10:39:16;15.00;99.90
3564;DHT22;1796;52.388;13.096;2023-05-07T10:41:43;15.10;99.90
3564;DHT22;1796;52.388;13.096;2023-05-07T10:44:10;15.30;99.90
3564;DHT22;1796;52.388;13.096;2023-05-07T10:46:37;15.70;99.90
3564;DHT22;1796;52.388;13.096;2023-05-07T10:49:11;16.20;99.90
3564;DHT22;1796;52.388;13.096;2023-05-07T10:51:38;15.90;99.90
3564;DHT22;1796;52.388;13.096;2023-05-07T10:54:22;16.10;99.90
3564;DHT22;1796;52.388;13.096;2023-05-07T10:56:50;16.40;99.90
3564;DHT22;1796;52.388;13.096;2023-05-07T10:59:34;16.20;99.90
3564;DHT22;1796;52.388;13.096;2023-05-07T11:02:06;16.00;99.90
3564;DHT22;1796;52.388;13.096;2023-05-07T11:04:37;16.10;99.90
3564;DHT22;1796;52.388;13.096;2023-05-07T11:07:34;16.20;99.90
3564;DHT22;1796;52.388;13.096;2023-05-07T11:10:05;16.30;99.90
3564;DHT22;1796;52.388;13.096;2023-05-07T11:12:53;16.10;99.90
3564;DHT22;1796;52.388;13.096;2023-05-07T11:15:42;16.00;99.90
3564;DHT22;1796;52.388;13.096;2023-05-07T11:18:11;15.70;99.90
3564;DHT22;1796;52.388;13.096;2023-05-07T11:20:53;15.20;99.90
3564;DHT22;1796;52.388;13.096;2023-05-07T11:23:57;15.60;99.90
3564;DHT22;1796;52.388;13.096;2023-05-07T11:26:25;15.20;99.90
3564;DHT22;1796;52.388;13.096;2023-05-07T11:28:52;15.00;99.90
3564;DHT22;1796;52.388;13.096;2023-05-07T11:31:24;15.30;99.90
3564;DHT22;1796;52.388;13.096;2023-05-07T11:33:52;15.70;99.90
3564;DHT22;1796;52.388;13.096;2023-05-07T11:36:22;15.50;99.90
3564;DHT22;1796;52.388;13.096;2023-05-07T11:38:49;15.60;99.90
3564;DHT22;1796;52.388;13.096;2023-05-07T11:41:16;15.80;99.90
3564;DHT22;1796;52.388;13.096;2023-05-07T11:43:59;16.10;99.90
3564;DHT22;1796;52.388;13.096;2023-05-07T11:46:27;16.40;99.90
3564;DHT22;1796;52.388;13.096;2023-05-07T11:48:54;16.00;99.90
3564;DHT22;1796;52.388;13.096;2023-05-07T11:51:24;15.50;99.90
3564;DHT22;1796;52.388;13.096;2023-05-07T11:53:52;15.20;99.90
3564;DHT22;1796;52.388;13.096;2023-05-07T11:56:19;15.70;99.90
3564;DHT22;1796;52.388;13.096;2023-05-07T11:58:47;16.10;99.90
3564;DHT22;1796;52.388;13.096;2023-05-07T12:01:15;16.00;99.90
3564;DHT22;1796;52.388;13.096;2023-05-07T12:03:44;15.90;99.90
3564;DHT22;1796;52.388;13.096;2023-05-07T12:06:14;15.80;99.90
3564;DHT22;1796;52.388;13.096;2023-05-07T12:08:43;15.90;99.90
3564;DHT22;1796;52.388;13.096;2023-05-07T12:11:14;16.00;99.90
3564;DHT22;1796;52.388;13.096;2023-05-07T12:13:42;15.70;99.90
3564;DHT22;1796;52.388;13.096;2023-05-07T12:16:09;15.40;99.90
3564;DHT22;1796;52.388;13.096;2023-05-07T12:18:36;15.90;99.90
3564;DHT22;1796;52.388;13.096;2023-05-07T12:21:05;16.10;99.90
3564;DHT22;1796;52.388;13.096;2023-05-07T12:23:33;16.10;99.90
3564;DHT22;1796;52.388;13.096;2023-05-07T12:26:02;15.90;99.90
3564;DHT22;1796;52.388;13.096;2023-05-07T12:28:29;15.80;99.90
3564;DHT22;1796;52.388;13.096;2023-05-07T12:30:57;15.50;99.90
3564;DHT22;1796;52.388;13.096;2023-05-07T12:33:25;15.40;99.90
3564;DHT22;1796;52.388;13.096;2023-05-07T12:35:54;15.60;99.90
3564;DHT22;1796;52.388;13.096;2023-05-07T12:38:22;15.50;99.90
3564;DHT22;1796;52.388;13.096;2023-05-07T12:40:50;15.40;99.90
3564;DHT22;1796;52.388;13.096;2023-05-07T12:43:19;15.60;99.90
3564;DHT22;1796;52.388;13.096;2023-05-07T12:45:48;15.90;99.90
3564;DHT22;1796;52.388;13.096;2023-05-07T12:48:16;15.40;99.90
3564;DHT22;1796;52.388;13.096;2023-05-07T12:50:43;15.40;99.90
3564;DHT22;1796;52.388;13.096;2023-05-07T12:53:11;15.60;99.90
3564;DHT22;1796;52.388;13.096;2023-05-07T12:55:42;15.70;99.90
3564;DHT22;1796;52.388;13.096;2023-05-07T12:58:19;15.70;99.90
3564;DHT22;1796;52.388;13.096;2023-05-07T13:00:48;15.70;99.90
3564;DHT22;1796;52.388;13.096;2023-05-07T13:03:21;15.70;99.90
3564;DHT22;1796;52.388;13.096;2023-05-07T13:05:49;15.80;99.90
3564;DHT22;1796;52.388;13.096;2023-05-07T13:08:30;15.60;99.90
3564;DHT22;1796;52.388;13.096;2023-05-07T13:10:58;15.80;99.90
3564;DHT22;1796;52.388;13.096;2023-05-07T13:13:30;15.90;99.90
3564;DHT22;1796;52.388;13.096;2023-05-07T13:15:57;16.20;99.90
3564;DHT22;1796;52.388;13.096;2023-05-07T13:18:25;16.20;99.90
3564;DHT22;1796;52.388;13.096;2023-05-07T13:20:52;15.90;99.90
3564;DHT22;1796;52.388;13.096;2023-05-07T13:23:19;15.50;99.90
3564;DHT22;1796;52.388;13.096;2023-05-07T13:25:47;15.50;99.90
3564;DHT22;1796;52.388;13.096;2023-05-07T13:28:14;15.60;99.90
3564;DHT22;1796;52.388;13.096;2023-05-07T13:30:42;15.60;99.90
3564;DHT22;1796;52.388;13.096;2023-05-07T13:33:09;15.70;99.90
3564;DHT22;1796;52.388;13.096;2023-05-07T13:35:36;15.60;99.90
3564;DHT22;1796;52.388;13.096;2023-05-07T13:38:03;15.70;99.90
3564;DHT22;1796;52.388;13.096;2023-05-07T13:40:30;16.10;99.90
3564;DHT22;1796;52.388;13.096;2023-05-07T13:42:58;16.50;99.90
3564;DHT22;1796;52.388;13.096;2023-05-07T13:45:27;16.90;99.90
3564;DHT22;1796;52.388;13.096;2023-05-07T13:47:56;17.10;99.90
3564;DHT22;1796;52.388;13.096;2023-05-07T13:50:24;17.10;99.90
3564;DHT22;1796;52.388;13.096;2023-05-07T13:52:52;17.10;99.90
3564;DHT22;1796;52.388;13.096;2023-05-07T13:55:20;16.60;99.90
3564;DHT22;1796;52.388;13.096;2023-05-07T13:57:53;16.50;99.90
3564;DHT22;1796;52.388;13.096;2023-05-07T14:00:20;16.40;99.90
3564;DHT22;1796;52.388;13.096;2023-05-07T14:02:47;15.70;99.90
3564;DHT22;1796;52.388;13.096;2023-05-07T14:05:16;16.00;99.90
3564;DHT22;1796;52.388;13.096;2023-05-07T14:07:43;16.30;99.90
3564;DHT22;1796;52.388;13.096;2023-05-07T14:10:10;16.50;99.90
3564;DHT22;1796;52.388;13.096;2023-05-07T14:12:38;16.40;99.90
3564;DHT22;1796;52.388;13.096;2023-05-07T14:15:06;16.20;99.90
3564;DHT22;1796;52.388;13.096;2023-05-07T14:17:33;15.90;99.90
3564;DHT22;1796;52.388;13.096;2023-05-07T14:20:00;15.70;99.90
3564;DHT22;1796;52.388;13.096;2023-05-07T14:22:29;15.50;99.90
3564;DHT22;1796;52.388;13.096;2023-05-07T14:24:55;15.40;99.90
3564;DHT22;1796;52.388;13.096;2023-05-07T14:27:22;15.50;99.90
3564;DHT22;1796;52.388;13.096;2023-05-07T14:29:49;15.40;99.90
3564;DHT22;1796;52.388;13.096;2023-05-07T14:32:16;15.50;99.90
3564;DHT22;1796;52.388;13.096;2023-05-07T14:34:44;15.80;99.90
3564;DHT22;1796;52.388;13.096;2023-05-07T14:37:11;15.90;99.90
3564;DHT22;1796;52.388;13.096;2023-05-07T14:39:40;15.90;99.90
3564;DHT22;1796;52.388;13.096;2023-05-07T14:42:07;16.00;99.90
3564;DHT22;1796;52.388;13.096;2023-05-07T14:44:34;15.90;99.90
3564;DHT22;1796;52.388;13.096;2023-05-07T14:47:01;15.90;99.90
3564;DHT22;1796;52.388;13.096;2023-05-07T14:49:28;15.90;99.90
3564;DHT22;1796;52.388;13.096;2023-05-07T14:51:57;15.90;99.90
3564;DHT22;1796;52.388;13.096;2023-05-07T15:00:55;15.70;99.90
3564;DHT22;1796;52.388;13.096;2023-05-07T15:03:22;15.70;99.90
3564;DHT22;1796;52.388;13.096;2023-05-07T15:05:50;15.80;99.90
3564;DHT22;1796;52.388;13.096;2023-05-07T15:08:17;15.80;99.90
3564;DHT22;1796;52.388;13.096;2023-05-07T15:10:44;15.70;99.90
3564;DHT22;1796;52.388;13.096;2023-05-07T15:13:12;15.50;99.90
3564;DHT22;1796;52.388;13.096;2023-05-07T15:15:39;15.60;99.90
3564;DHT22;1796;52.388;13.096;2023-05-07T15:18:07;15.80;99.90
3564;DHT22;1796;52.388;13.096;2023-05-07T15:20:35;15.90;99.90
3564;DHT22;1796;52.388;13.096;2023-05-07T15:23:02;15.80;99.90
3564;DHT22;1796;52.388;13.096;2023-05-07T15:25:30;15.90;99.90
3564;DHT22;1796;52.388;13.096;2023-05-07T15:27:59;15.70;99.90
3564;DHT22;1796;52.388;13.096;2023-05-07T15:30:26;15.70;99.90
3564;DHT22;1796;52.388;13.096;2023-05-07T15:32:53;15.60;99.90
3564;DHT22;1796;52.388;13.096;2023-05-07T15:35:21;15.70;99.90
3564;DHT22;1796;52.388;13.096;2023-05-07T15:37:49;15.50;99.90
3564;DHT22;1796;52.388;13.096;2023-05-07T15:40:16;15.60;99.90
3564;DHT22;1796;52.388;13.096;2023-05-07T15:42:45;15.70;99.90
3564;DHT22;1796;52.388;13.096;2023-05-07T15:45:13;15.70;99.90
3564;DHT22;1796;52.388;13.096;2023-05-07T15:47:39;15.60;99.90
3564;DHT22;1796;52.388;13.096;2023-05-07T15:50:07;15.50;99.90
3564;DHT22;1796;52.388;13.096;2023-05-07T15:52:35;15.60;99.90
3564;DHT22;1796;52.388;13.096;2023-05-07T15:55:04;15.60;99.90
3564;DHT22;1796;52.388;13.096;2023-05-07T15:57:32;15.30;99.90
3564;DHT22;1796;52.388;13.096;2023-05-07T15:59:58;15.40;99.90
3564;DHT22;1796;52.388;13.096;2023-05-07T16:02:25;15.50;99.90
3564;DHT22;1796;52.388;13.096;2023-05-07T16:04:52;15.50;99.90
3564;DHT22;1796;52.388;13.096;2023-05-07T16:07:19;15.20;99.90
3564;DHT22;1796;52.388;13.096;2023-05-07T16:09:48;15.00;99.90
3564;DHT22;1796;52.388;13.096;2023-05-07T16:12:15;14.80;99.90
3564;DHT22;1796;52.388;13.096;2023-05-07T16:14:42;14.80;99.90
3564;DHT22;1796;52.388;13.096;2023-05-07T16:17:09;14.80;99.90
3564;DHT22;1796;52.388;13.096;2023-05-07T16:19:36;14.80;99.90
3564;DHT22;1796;52.388;13.096;2023-05-07T16:22:03;14.80;99.90
3564;DHT22;1796;52.388;13.096;2023-05-07T16:24:30;14.80;99.90
3564;DHT22;1796;52.388;13.096;2023-05-07T16:26:58;14.70;99.90
3564;DHT22;1796;52.388;13.096;2023-05-07T16:29:25;14.70;99.90
3564;DHT22;1796;52.388;13.096;2023-05-07T16:31:52;14.70;99.90
3564;DHT22;1796;52.388;13.096;2023-05-07T16:34:19;14.60;99.90
3564;DHT22;1796;52.388;13.096;2023-05-07T16:36:47;14.70;99.90